Time;durP1;ratioP1;P1;durP2;ratioP2;P2;SDS_P1;SDS_P2;PMS_P1;PMS_P2;Temp;Humidity;BMP_temperature;BMP_pressure;BME280_temperature;BME280_humidity;BME280_pressure;Samples;Min_cycle;Max_cycle;Signal;HPM_P1;HPM_P2
2021/04/20 00:02:10;;;;;;;10.02;3.55;;;9.70;99.90;;;;;;5064740;28;20021;-72
2021/04/20 00:04:36;;;;;;;5.75;3.35;;;9.60;99.90;;;;;;5064349;28;20045;-71
2021/04/20 00:07:02;;;;;;;8.93;3.40;;;9.50;99.90;;;;;;5063385;28;20036;-72
2021/04/20 00:09:28;;;;;;;11.10;3.60;;;9.40;99.90;;;;;;5064468;28;20179;-73
2021/04/20 00:11:54;;;;;;;6.93;2.55;;;9.30;99.90;;;;;;5064762;28;20029;-72
2021/04/20 00:14:20;;;;;;;6.03;3.08;;;9.30;99.90;;;;;;5064629;28;20067;-72
2021/04/20 00:16:45;;;;;;;6.85;3.30;;;9.20;99.90;;;;;;5057998;28;20025;-74
2021/04/20 00:19:11;;;;;;;6.05;3.38;;;9.10;99.90;;;;;;5049792;28;20025;-73
2021/04/20 00:21:37;;;;;;;4.40;2.53;;;9.10;99.90;;;;;;5051202;28;20048;-72
2021/04/20 00:24:03;;;;;;;4.40;2.60;;;9.00;99.90;;;;;;5050931;28;20037;-72
2021/04/20 00:26:29;;;;;;;6.70;2.80;;;9.00;99.90;;;;;;5063250;28;20036;-71
2021/04/20 00:28:54;;;;;;;8.35;3.53;;;8.90;99.90;;;;;;5063052;28;20088;-71
2021/04/20 00:31:20;;;;;;;11.65;3.58;;;8.90;99.90;;;;;;5064506;28;20040;-73
2021/04/20 00:33:46;;;;;;;6.45;3.28;;;8.80;99.90;;;;;;5068262;28;20028;-72
2021/04/20 00:36:13;;;;;;;6.68;2.83;;;8.90;99.90;;;;;;5068588;28;20048;-72
2021/04/20 00:38:38;;;;;;;5.55;2.78;;;8.80;99.90;;;;;;5068323;28;20029;-71
2021/04/20 00:41:12;;;;;;;7.22;2.67;;;8.80;99.90;;;;;;5068445;28;20083;-73
2021/04/20 00:43:40;;;;;;;4.68;2.25;;;8.80;99.90;;;;;;5068237;28;20091;-72
2021/04/20 00:46:08;;;;;;;5.45;3.03;;;8.80;99.90;;;;;;5068375;28;20033;-72
2021/04/20 00:48:33;;;;;;;3.63;2.20;;;8.70;99.90;;;;;;5067972;28;20029;-72
2021/04/20 00:50:59;;;;;;;6.72;3.13;;;8.70;99.90;;;;;;5066635;28;20025;-71
2021/04/20 00:53:25;;;;;;;6.15;2.95;;;8.70;99.90;;;;;;5068147;28;20108;-72
2021/04/20 00:55:50;;;;;;;4.95;2.53;;;8.60;99.90;;;;;;5068030;28;20081;-72
2021/04/20 00:58:16;;;;;;;6.18;2.85;;;8.60;99.90;;;;;;5067020;28;20024;-74
2021/04/20 01:00:42;;;;;;;5.35;2.55;;;8.60;99.90;;;;;;5068162;28;20025;-72
2021/04/20 01:03:08;;;;;;;16.98;3.63;;;8.50;99.90;;;;;;5068519;28;20114;-72
2021/04/20 01:05:36;;;;;;;8.23;3.15;;;8.50;99.90;;;;;;5068002;28;20040;-70
2021/04/20 01:08:07;;;;;;;15.43;3.13;;;8.40;99.90;;;;;;5067975;28;20518;-72
2021/04/20 01:10:34;;;;;;;7.47;3.15;;;8.40;99.90;;;;;;5067907;28;20025;-71
2021/04/20 01:13:01;;;;;;;9.93;3.10;;;8.40;99.90;;;;;;5067764;28;20478;-71
2021/04/20 01:15:27;;;;;;;7.28;3.00;;;8.40;99.90;;;;;;5067651;28;20097;-72
2021/04/20 01:17:52;;;;;;;7.13;3.40;;;8.30;99.90;;;;;;5067753;28;20021;-71
2021/04/20 01:20:18;;;;;;;8.65;3.42;;;8.30;99.90;;;;;;5067216;28;20099;-71
2021/04/20 01:22:45;;;;;;;7.00;3.33;;;8.20;99.90;;;;;;5063443;28;20056;-72
2021/04/20 01:25:14;;;;;;;5.43;2.70;;;8.20;99.90;;;;;;5064983;28;20088;-72
2021/04/20 01:27:40;;;;;;;6.47;3.38;;;8.10;99.90;;;;;;5067682;28;20042;-72
2021/04/20 01:30:09;;;;;;;5.45;2.85;;;8.10;99.90;;;;;;5063697;28;20025;-73
2021/04/20 01:32:40;;;;;;;8.20;2.80;;;8.10;99.90;;;;;;5047480;28;20085;-71
2021/04/20 01:35:08;;;;;;;6.25;3.13;;;8.00;99.90;;;;;;5047481;28;20093;-71
2021/04/20 01:37:35;;;;;;;5.38;2.47;;;8.00;99.90;;;;;;5047347;28;20028;-71
2021/04/20 01:40:01;;;;;;;6.88;3.10;;;8.00;99.90;;;;;;5047164;28;20029;-72
2021/04/20 01:42:27;;;;;;;11.70;2.67;;;7.90;99.90;;;;;;5066790;28;20104;-72
2021/04/20 01:44:53;;;;;;;8.02;3.72;;;7.90;99.90;;;;;;5066834;28;20037;-72
2021/04/20 01:47:18;;;;;;;12.48;2.95;;;7.80;99.90;;;;;;5067254;28;20470;-71
2021/04/20 01:49:44;;;;;;;8.23;2.58;;;7.80;99.90;;;;;;5067197;28;20036;-71
2021/04/20 01:52:10;;;;;;;6.65;2.58;;;7.80;99.90;;;;;;5067296;28;20025;-71
2021/04/20 01:54:39;;;;;;;9.05;3.28;;;7.80;99.90;;;;;;5067157;28;20017;-71
2021/04/20 01:57:06;;;;;;;8.05;2.85;;;7.60;99.90;;;;;;5067000;28;20039;-71
2021/04/20 01:59:32;;;;;;;4.78;2.88;;;7.70;99.90;;;;;;5066990;28;20025;-72
2021/04/20 02:01:58;;;;;;;5.47;2.95;;;7.70;99.90;;;;;;5066946;28;20056;-72
2021/04/20 02:04:24;;;;;;;8.88;3.25;;;7.60;99.90;;;;;;5065557;28;20037;-71
2021/04/20 02:06:52;;;;;;;10.40;3.38;;;7.60;99.90;;;;;;5066683;28;20085;-71
2021/04/20 02:09:18;;;;;;;4.60;2.83;;;7.60;99.90;;;;;;5066995;28;20029;-73
2021/04/20 02:11:43;;;;;;;5.82;2.85;;;7.60;99.90;;;;;;5067064;28;20055;-72
2021/04/20 02:14:09;;;;;;;7.25;3.42;;;7.60;99.90;;;;;;5066823;28;20025;-71
2021/04/20 02:16:35;;;;;;;5.68;2.60;;;7.60;99.90;;;;;;5066583;28;20036;-71
2021/04/20 02:19:14;;;;;;;5.13;2.70;;;7.50;99.90;;;;;;5066599;28;20089;-72
2021/04/20 02:21:40;;;;;;;5.35;2.65;;;7.60;99.90;;;;;;5066628;28;20049;-71
2021/04/20 02:24:15;;;;;;;5.15;2.90;;;7.50;99.90;;;;;;5066237;28;20062;-71
2021/04/20 02:26:42;;;;;;;5.43;3.00;;;7.40;99.90;;;;;;5065321;28;20036;-72
2021/04/20 02:29:09;;;;;;;4.28;2.72;;;7.40;99.90;;;;;;5066349;28;20057;-71
2021/04/20 02:31:40;;;;;;;8.68;3.45;;;7.40;99.90;;;;;;5066359;28;20025;-72
2021/04/20 02:34:07;;;;;;;5.22;3.10;;;7.40;99.90;;;;;;5066262;28;20504;-71
2021/04/20 02:36:40;;;;;;;7.95;2.58;;;7.40;99.90;;;;;;5066091;28;20051;-71
2021/04/20 02:39:08;;;;;;;6.43;3.38;;;7.30;99.90;;;;;;5064921;28;20021;-71
2021/04/20 02:41:34;;;;;;;8.63;3.42;;;7.30;99.90;;;;;;5066099;28;20046;-71
2021/04/20 02:44:01;;;;;;;8.93;3.58;;;7.30;99.90;;;;;;5065943;28;20108;-71
2021/04/20 02:46:27;;;;;;;7.15;3.80;;;7.30;99.90;;;;;;5066093;28;20017;-71
2021/04/20 02:48:53;;;;;;;5.10;3.05;;;7.20;99.90;;;;;;5065929;28;20032;-71
2021/04/20 02:51:19;;;;;;;5.93;3.10;;;7.20;99.90;;;;;;5064812;28;20413;-72
2021/04/20 02:53:45;;;;;;;7.60;3.30;;;7.10;99.90;;;;;;5064610;28;20067;-73
2021/04/20 02:56:14;;;;;;;7.68;3.15;;;7.10;99.90;;;;;;5063776;28;20132;-71
2021/04/20 02:58:40;;;;;;;7.38;3.33;;;7.10;99.90;;;;;;5065678;28;20036;-71
2021/04/20 03:01:16;;;;;;;8.27;3.03;;;7.00;99.90;;;;;;5065802;28;20422;-71
2021/04/20 03:03:43;;;;;;;9.70;4.10;;;6.90;99.90;;;;;;5065872;28;20047;-71
2021/04/20 03:06:09;;;;;;;5.82;3.78;;;6.80;99.90;;;;;;5064310;28;20490;-71
2021/04/20 03:08:35;;;;;;;8.10;3.05;;;6.80;99.90;;;;;;5065715;28;20036;-72
2021/04/20 03:11:04;;;;;;;8.30;3.22;;;6.80;99.90;;;;;;5065508;28;20025;-71
2021/04/20 03:13:31;;;;;;;7.47;3.17;;;6.80;99.90;;;;;;5065549;28;20024;-71
2021/04/20 03:15:57;;;;;;;8.93;3.20;;;6.70;99.90;;;;;;5065763;28;20036;-70
2021/04/20 03:18:23;;;;;;;13.38;3.78;;;6.70;99.90;;;;;;5065506;28;20028;-71
2021/04/20 03:20:49;;;;;;;8.10;3.17;;;6.70;99.90;;;;;;5065347;28;20053;-73
2021/04/20 03:23:15;;;;;;;5.68;2.85;;;6.60;99.90;;;;;;5065337;28;20476;-72
2021/04/20 03:25:40;;;;;;;9.23;3.50;;;6.60;99.90;;;;;;5065295;28;20058;-72
2021/04/20 03:28:08;;;;;;;8.18;3.22;;;6.60;99.90;;;;;;5065011;28;20104;-71
2021/04/20 03:30:34;;;;;;;10.32;3.55;;;6.60;99.90;;;;;;5065211;28;20025;-70
2021/04/20 03:33:19;;;;;;;8.80;3.65;;;6.50;99.90;;;;;;5065225;28;20535;-72
2021/04/20 03:36:04;;;;;;;15.98;3.75;;;6.50;99.90;;;;;;5065048;28;20033;-70
2021/04/20 03:38:43;;;;;;;6.32;2.50;;;6.50;99.90;;;;;;5064918;28;20017;-70
2021/04/20 03:41:18;;;;;;;8.32;4.00;;;6.50;99.90;;;;;;5065222;28;20025;-72
2021/04/20 03:43:47;;;;;;;13.20;4.07;;;6.40;99.90;;;;;;5065169;28;20474;-71
2021/04/20 03:46:19;;;;;;;5.32;2.90;;;6.30;99.90;;;;;;5065007;28;20017;-71
2021/04/20 03:49:10;;;;;;;5.03;3.13;;;6.30;99.90;;;;;;5065036;28;20071;-72
2021/04/20 03:51:38;;;;;;;6.22;2.78;;;6.30;99.90;;;;;;5057703;28;20108;-71
2021/04/20 03:54:07;;;;;;;8.70;4.20;;;6.20;99.90;;;;;;5064530;28;20055;-72
2021/04/20 03:56:35;;;;;;;3.85;3.00;;;6.20;99.90;;;;;;5055209;28;20079;-71
2021/04/20 03:59:04;;;;;;;8.63;3.60;;;6.30;99.90;;;;;;5063380;28;20029;-71
2021/04/20 04:01:37;;;;;;;5.63;3.20;;;6.10;99.90;;;;;;5048477;28;20032;-71
2021/04/20 04:04:05;;;;;;;8.25;3.38;;;6.10;99.90;;;;;;5044813;28;20064;-72
2021/04/20 04:06:34;;;;;;;9.48;3.80;;;6.10;99.90;;;;;;5044364;28;20025;-72
2021/04/20 04:09:02;;;;;;;18.85;3.53;;;6.10;99.90;;;;;;5044497;28;20071;-73
2021/04/20 04:11:32;;;;;;;9.65;3.72;;;6.10;99.90;;;;;;5060177;28;20040;-71
2021/04/20 04:14:01;;;;;;;4.57;3.20;;;6.00;99.90;;;;;;5059986;28;20025;-71
2021/04/20 04:16:28;;;;;;;12.13;4.43;;;6.10;99.90;;;;;;5044274;28;20021;-71
2021/04/20 04:18:57;;;;;;;10.60;4.18;;;6.00;99.90;;;;;;5044518;28;20025;-70
2021/04/20 04:21:46;;;;;;;11.57;4.22;;;6.00;99.90;;;;;;5044314;28;20190;-73
2021/04/20 04:24:13;;;;;;;7.38;3.80;;;6.00;99.90;;;;;;5044635;28;20120;-71
2021/04/20 04:26:46;;;;;;;9.57;3.92;;;6.00;99.90;;;;;;5044662;28;20017;-71
2021/04/20 04:29:13;;;;;;;18.88;3.90;;;5.90;99.90;;;;;;5044654;28;20045;-70
2021/04/20 04:31:42;;;;;;;13.07;3.70;;;5.90;99.90;;;;;;5044578;28;20425;-70
2021/04/20 04:34:11;;;;;;;10.23;4.25;;;5.90;99.90;;;;;;5044341;28;20125;-71
2021/04/20 04:36:41;;;;;;;7.68;3.78;;;5.80;99.90;;;;;;5059694;28;20030;-71
2021/04/20 04:39:14;;;;;;;13.55;4.63;;;5.80;99.90;;;;;;5044251;28;20052;-71
2021/04/20 04:41:40;;;;;;;10.15;4.53;;;5.80;99.90;;;;;;5044580;28;20592;-72
2021/04/20 04:44:06;;;;;;;10.60;4.13;;;5.80;99.90;;;;;;5044286;28;20057;-73
2021/04/20 04:46:32;;;;;;;10.32;3.78;;;5.80;99.90;;;;;;5044253;28;20036;-72
2021/04/20 04:49:00;;;;;;;6.72;4.18;;;5.80;99.90;;;;;;5044155;28;20021;-71
2021/04/20 04:51:26;;;;;;;11.73;4.25;;;5.80;99.90;;;;;;5044174;28;20029;-72
2021/04/20 04:53:52;;;;;;;12.27;4.82;;;5.80;99.90;;;;;;5059628;28;20030;-72
2021/04/20 04:56:18;;;;;;;9.35;3.92;;;5.80;99.90;;;;;;5044262;28;20021;-72
2021/04/20 04:58:45;;;;;;;12.40;4.97;;;5.90;99.90;;;;;;5044206;28;20022;-73
2021/04/20 05:01:13;;;;;;;8.85;4.65;;;5.90;99.90;;;;;;5044457;28;20109;-71
2021/04/20 05:03:40;;;;;;;9.05;5.13;;;5.90;99.90;;;;;;5044273;28;20532;-72
2021/04/20 05:06:07;;;;;;;11.98;4.15;;;5.90;99.90;;;;;;5044027;28;20033;-72
2021/04/20 05:08:32;;;;;;;11.77;4.72;;;5.90;99.90;;;;;;5044016;28;20141;-73
2021/04/20 05:11:02;;;;;;;8.60;4.68;;;6.00;99.90;;;;;;5043937;28;20026;-72
2021/04/20 05:13:29;;;;;;;11.32;4.47;;;6.10;99.90;;;;;;5059285;28;20030;-72
2021/04/20 05:15:55;;;;;;;9.13;4.15;;;6.10;99.90;;;;;;5059224;28;20048;-72
2021/04/20 05:18:25;;;;;;;11.02;4.55;;;6.00;99.90;;;;;;5045415;28;20081;-72
2021/04/20 05:20:51;;;;;;;11.63;5.03;;;6.10;99.90;;;;;;5047736;28;20049;-73
2021/04/20 05:23:17;;;;;;;9.48;4.53;;;6.10;99.90;;;;;;5047831;28;20150;-71
2021/04/20 05:25:44;;;;;;;7.60;4.07;;;6.10;99.90;;;;;;5047906;28;20092;-72
2021/04/20 05:28:10;;;;;;;8.43;4.07;;;6.20;99.90;;;;;;5047788;28;20045;-72
2021/04/20 05:30:36;;;;;;;8.10;4.72;;;6.30;99.90;;;;;;5047870;28;20032;-73
2021/04/20 05:33:02;;;;;;;8.52;3.78;;;6.30;99.90;;;;;;5047572;28;20029;-73
2021/04/20 05:35:28;;;;;;;10.45;4.72;;;6.30;99.90;;;;;;5047223;28;20037;-73
2021/04/20 05:37:54;;;;;;;9.57;4.18;;;6.40;99.90;;;;;;5047615;28;20026;-73
2021/04/20 05:40:23;;;;;;;11.32;4.95;;;6.40;99.90;;;;;;5047540;28;20048;-74
2021/04/20 05:42:54;;;;;;;16.42;4.93;;;6.40;99.90;;;;;;5047409;28;20132;-73
2021/04/20 05:45:20;;;;;;;11.70;4.40;;;6.50;99.90;;;;;;5047160;28;20037;-72
2021/04/20 05:47:48;;;;;;;9.90;4.72;;;6.60;99.90;;;;;;5047223;28;20032;-74
2021/04/20 05:50:28;;;;;;;11.80;4.35;;;6.60;99.90;;;;;;5047471;28;20048;-74
2021/04/20 05:52:54;;;;;;;6.82;3.80;;;6.70;99.90;;;;;;5046644;28;20033;-72
2021/04/20 05:55:20;;;;;;;11.52;5.03;;;6.70;99.90;;;;;;5046856;28;20109;-74
2021/04/20 05:57:47;;;;;;;9.50;3.88;;;6.80;99.90;;;;;;5047286;28;20498;-73
2021/04/20 06:00:15;;;;;;;10.30;3.92;;;6.90;99.90;;;;;;5047074;28;20489;-74
2021/04/20 06:02:42;;;;;;;10.95;4.07;;;6.90;99.90;;;;;;5047074;28;20033;-73
2021/04/20 06:05:16;;;;;;;13.05;3.97;;;6.90;99.90;;;;;;5046780;28;20037;-72
2021/04/20 06:07:47;;;;;;;7.28;3.78;;;6.90;99.90;;;;;;5045692;28;20033;-73
2021/04/20 06:10:14;;;;;;;11.15;4.03;;;6.90;99.90;;;;;;5046917;28;20509;-72
2021/04/20 06:12:41;;;;;;;13.52;3.63;;;7.00;99.90;;;;;;5047418;28;20032;-72
2021/04/20 06:15:09;;;;;;;22.35;4.50;;;7.00;99.90;;;;;;5056729;28;20025;-73
2021/04/20 06:17:37;;;;;;;7.82;4.22;;;7.10;99.90;;;;;;5061925;28;20363;-73
2021/04/20 06:20:04;;;;;;;7.38;3.70;;;7.20;99.90;;;;;;5046476;28;20061;-73
2021/04/20 06:22:30;;;;;;;8.23;4.32;;;7.20;99.90;;;;;;5046867;28;20168;-73
2021/04/20 06:24:57;;;;;;;21.20;4.25;;;7.20;99.90;;;;;;5052392;28;20037;-72
2021/04/20 06:27:23;;;;;;;6.20;3.85;;;7.40;99.90;;;;;;5060724;28;20025;-73
2021/04/20 06:29:49;;;;;;;10.98;4.18;;;7.40;99.90;;;;;;5046560;28;20032;-74
2021/04/20 06:32:16;;;;;;;10.38;4.05;;;7.50;99.90;;;;;;5046481;28;20029;-71
2021/04/20 06:34:42;;;;;;;7.43;4.28;;;7.50;99.90;;;;;;5046414;28;20025;-73
2021/04/20 06:37:08;;;;;;;15.63;5.03;;;7.60;99.90;;;;;;5046497;28;20033;-74
2021/04/20 06:39:34;;;;;;;8.38;3.90;;;7.60;99.90;;;;;;5051088;28;20028;-74
2021/04/20 06:42:02;;;;;;;6.97;4.00;;;7.80;99.90;;;;;;5058550;28;20476;-73
2021/04/20 06:44:58;;;;;;;7.65;3.90;;;7.90;99.90;;;;;;5045906;28;20029;-73
2021/04/20 06:47:33;;;;;;;8.23;3.85;;;8.00;99.90;;;;;;5045914;28;20036;-74
2021/04/20 06:50:08;;;;;;;13.82;4.20;;;8.00;99.90;;;;;;5045903;28;20060;-74
2021/04/20 06:52:49;;;;;;;8.65;3.60;;;8.10;99.90;;;;;;5045466;28;20055;-73
2021/04/20 06:55:23;;;;;;;7.20;3.63;;;8.20;99.90;;;;;;5045900;28;20026;-74
2021/04/20 06:58:11;;;;;;;5.55;3.20;;;8.40;99.90;;;;;;5045832;28;20022;-72
2021/04/20 07:00:49;;;;;;;4.90;3.33;;;8.50;99.90;;;;;;5049142;28;20100;-73
2021/04/20 07:03:32;;;;;;;18.63;4.10;;;8.50;99.90;;;;;;5061423;28;20088;-75
2021/04/20 07:06:18;;;;;;;10.63;3.75;;;8.70;99.90;;;;;;5045870;28;20037;-73
2021/04/20 07:08:58;;;;;;;8.15;3.92;;;8.80;99.90;;;;;;5061346;28;20037;-74
2021/04/20 07:11:27;;;;;;;9.60;3.88;;;8.90;99.90;;;;;;5045836;28;20375;-74
2021/04/20 07:13:55;;;;;;;7.95;3.50;;;9.00;99.90;;;;;;5045791;28;20061;-75
2021/04/20 07:16:32;;;;;;;7.20;3.70;;;9.10;99.90;;;;;;5046009;28;20025;-74
2021/04/20 07:19:30;;;;;;;8.40;4.15;;;9.30;99.90;;;;;;5045121;28;20029;-73
2021/04/20 07:22:07;;;;;;;8.07;3.97;;;9.30;99.90;;;;;;5044650;28;20095;-74
2021/04/20 07:24:41;;;;;;;7.78;3.67;;;9.40;99.90;;;;;;5045247;28;20099;-74
2021/04/20 07:27:34;;;;;;;14.60;4.18;;;9.50;99.90;;;;;;5045466;28;20025;-74
2021/04/20 07:30:30;;;;;;;8.97;4.20;;;9.70;99.90;;;;;;5045438;28;20049;-73
2021/04/20 07:33:29;;;;;;;9.60;4.75;;;9.90;99.90;;;;;;5045836;28;20275;-74
2021/04/20 07:36:11;;;;;;;9.80;3.67;;;10.20;99.90;;;;;;5045271;28;20037;-73
2021/04/20 07:39:01;;;;;;;11.20;4.70;;;10.30;99.90;;;;;;5045254;28;20035;-73
2021/04/20 07:41:52;;;;;;;9.30;4.47;;;10.40;99.90;;;;;;5042724;28;20501;-74
2021/04/20 07:44:29;;;;;;;7.82;3.90;;;10.60;99.90;;;;;;5044626;28;20037;-74
2021/04/20 07:46:57;;;;;;;7.45;3.45;;;10.70;99.90;;;;;;5044748;28;20108;-73
2021/04/20 07:49:43;;;;;;;5.43;3.28;;;10.80;99.90;;;;;;5044343;28;20044;-74
2021/04/20 07:52:17;;;;;;;7.00;4.10;;;10.90;99.90;;;;;;5044749;28;20037;-72
2021/04/20 07:54:57;;;;;;;9.93;3.47;;;11.00;99.90;;;;;;5044928;28;20033;-73
2021/04/20 07:57:33;;;;;;;13.68;4.28;;;11.10;99.90;;;;;;5044544;28;20569;-73
2021/04/20 08:00:07;;;;;;;9.02;3.25;;;11.20;99.90;;;;;;5059629;28;20037;-72
2021/04/20 08:02:56;;;;;;;8.10;3.60;;;11.40;99.90;;;;;;5044587;28;20035;-71
2021/04/20 08:05:33;;;;;;;9.27;3.85;;;11.60;99.90;;;;;;5045289;28;20056;-73
2021/04/20 08:08:06;;;;;;;9.05;3.60;;;11.80;99.90;;;;;;5062131;28;20025;-72
2021/04/20 08:10:50;;;;;;;10.63;3.78;;;11.90;99.90;;;;;;5047794;28;20026;-73
2021/04/20 08:13:44;;;;;;;9.52;3.88;;;12.00;99.90;;;;;;5049465;28;20025;-74
2021/04/20 08:16:19;;;;;;;7.40;3.28;;;12.20;99.90;;;;;;5048219;28;20029;-74
2021/04/20 08:19:19;;;;;;;12.25;3.15;;;12.40;99.90;;;;;;5047405;28;20030;-74
2021/04/20 08:21:49;;;;;;;8.63;3.35;;;12.60;99.90;;;;;;5048624;28;20087;-73
2021/04/20 08:24:21;;;;;;;6.97;3.55;;;12.80;99.90;;;;;;5060741;28;20100;-74
2021/04/20 08:26:51;;;;;;;5.95;2.72;;;13.00;99.90;;;;;;5044991;28;20022;-74
2021/04/20 08:29:22;;;;;;;6.60;3.42;;;13.30;99.90;;;;;;5049887;28;20060;-75
2021/04/20 08:32:10;;;;;;;11.20;4.03;;;13.60;99.90;;;;;;5062910;28;20025;-73
2021/04/20 08:34:45;;;;;;;6.47;3.00;;;13.90;99.90;;;;;;5063826;28;20584;-74
2021/04/20 08:37:18;;;;;;;7.75;3.22;;;14.10;99.90;;;;;;5064547;28;20048;-73
2021/04/20 08:40:12;;;;;;;5.97;3.38;;;14.20;99.90;;;;;;5064446;28;20330;-73
2021/04/20 08:43:17;;;;;;;27.10;3.08;;;14.50;99.90;;;;;;5064561;28;20036;-73
2021/04/20 08:45:51;;;;;;;6.05;2.45;;;14.70;99.90;;;;;;5064145;28;20100;-72
2021/04/20 08:48:32;;;;;;;11.00;2.97;;;14.90;99.90;;;;;;5063637;28;20021;-75
2021/04/20 08:51:21;;;;;;;4.15;2.40;;;15.00;99.90;;;;;;5064036;28;20033;-73
2021/04/20 08:54:29;;;;;;;7.03;2.75;;;15.20;99.90;;;;;;5066162;28;20444;-72
2021/04/20 08:57:18;;;;;;;5.22;2.40;;;15.30;99.90;;;;;;5068418;28;20032;-70
2021/04/20 09:00:12;;;;;;;5.15;2.88;;;15.40;99.90;;;;;;5068017;28;20552;-72
2021/04/20 09:03:03;;;;;;;10.27;2.72;;;15.50;99.90;;;;;;5067877;28;20525;-73
2021/04/20 09:05:44;;;;;;;6.03;2.90;;;15.50;99.90;;;;;;5067838;28;20045;-71
2021/04/20 09:08:24;;;;;;;5.45;2.63;;;15.50;99.90;;;;;;5068147;28;20458;-71
2021/04/20 09:11:19;;;;;;;7.53;2.78;;;15.60;99.90;;;;;;5063420;28;20059;-72
2021/04/20 09:14:08;;;;;;;7.28;2.88;;;15.80;99.90;;;;;;5066150;28;20037;-72
2021/04/20 09:16:50;;;;;;;5.13;2.75;;;16.00;99.90;;;;;;5046578;28;20498;-72
2021/04/20 09:19:44;;;;;;;3.85;2.20;;;16.20;99.90;;;;;;5047671;28;20026;-72
2021/04/20 09:22:49;;;;;;;6.07;2.83;;;16.30;99.90;;;;;;5047265;28;20053;-72
2021/04/20 09:25:17;;;;;;;;;;;16.60;99.90;;;;;;5048308;28;20045;-73
2021/04/20 09:28:03;;;;;;;5.00;2.38;;;16.90;99.90;;;;;;5063121;28;19931;-72
2021/04/20 09:30:35;;;;;;;4.25;2.17;;;17.10;99.90;;;;;;5050393;28;20466;-72
2021/04/20 09:33:20;;;;;;;2.28;1.90;;;17.30;99.90;;;;;;5046289;28;20080;-71
2021/04/20 09:35:48;;;;;;;7.70;2.80;;;17.40;99.90;;;;;;5047547;28;20101;-73
2021/04/20 09:38:15;;;;;;;5.50;2.85;;;17.60;99.90;;;;;;5047583;28;20033;-71
2021/04/20 09:40:42;;;;;;;4.65;2.30;;;17.80;99.90;;;;;;5047712;28;20029;-71
2021/04/20 09:43:23;;;;;;;4.30;2.65;;;18.00;99.90;;;;;;5047520;28;20029;-72
2021/04/20 09:46:12;;;;;;;4.57;2.50;;;18.20;99.90;;;;;;5047698;28;20505;-73
2021/04/20 09:48:54;;;;;;;6.32;2.35;;;18.40;99.30;;;;;;5047477;28;20025;-71
2021/04/20 09:51:26;;;;;;;4.43;2.25;;;18.60;99.90;;;;;;5047261;28;20025;-71
2021/04/20 09:53:55;;;;;;;11.00;2.30;;;18.60;99.90;;;;;;5047164;28;20100;-71
2021/04/20 09:56:42;;;;;;;7.47;2.78;;;18.80;99.90;;;;;;5047066;28;20022;-72
2021/04/20 09:59:17;;;;;;;3.03;2.03;;;18.90;98.30;;;;;;5047160;28;20406;-71
2021/04/20 10:01:58;;;;;;;6.50;2.33;;;19.00;99.80;;;;;;5047210;28;20034;-71
2021/04/20 10:04:42;;;;;;;3.97;2.25;;;19.10;97.60;;;;;;5057961;28;20163;-71
2021/04/20 10:07:41;;;;;;;5.10;2.60;;;19.10;98.70;;;;;;5061395;28;20056;-72
2021/04/20 10:10:18;;;;;;;3.60;2.28;;;19.30;98.60;;;;;;5046698;28;20108;-71
2021/04/20 10:13:09;;;;;;;12.63;2.08;;;19.40;96.90;;;;;;5046560;28;20025;-72
2021/04/20 10:15:51;;;;;;;3.65;1.73;;;19.50;94.60;;;;;;5046338;28;20095;-70
2021/04/20 10:18:27;;;;;;;3.38;2.00;;;19.70;95.90;;;;;;5046632;28;20101;-72
2021/04/20 10:21:07;;;;;;;4.28;2.13;;;19.90;95.40;;;;;;5046415;28;20049;-71
2021/04/20 10:23:42;;;;;;;5.43;1.80;;;19.90;94.40;;;;;;5045025;28;20025;-72
2021/04/20 10:26:17;;;;;;;1.92;1.50;;;20.00;96.00;;;;;;5062609;28;20493;-71
2021/04/20 10:28:52;;;;;;;5.20;2.20;;;20.20;93.50;;;;;;5066489;28;20491;-71
2021/04/20 10:31:22;;;;;;;2.60;1.90;;;20.30;92.70;;;;;;5064720;28;20033;-71
2021/04/20 10:33:50;;;;;;;3.33;1.85;;;20.40;94.80;;;;;;5065284;28;20025;-71
2021/04/20 10:36:21;;;;;;;3.17;2.13;;;20.70;95.40;;;;;;5065583;28;20021;-73
2021/04/20 10:38:47;;;;;;;3.15;2.03;;;20.80;93.30;;;;;;5065409;28;20021;-72
2021/04/20 10:41:29;;;;;;;4.03;1.95;;;20.90;91.80;;;;;;5066488;28;20025;-74
2021/04/20 10:43:56;;;;;;;9.95;2.45;;;20.90;91.70;;;;;;5066048;28;20033;-72
2021/04/20 10:46:25;;;;;;;4.60;2.15;;;21.10;92.40;;;;;;5066380;28;20355;-74
2021/04/20 10:48:54;;;;;;;5.40;2.33;;;21.30;92.20;;;;;;5066350;28;20065;-72
2021/04/20 10:51:38;;;;;;;4.30;1.67;;;21.50;90.40;;;;;;5066073;28;20036;-72
2021/04/20 10:54:06;;;;;;;3.55;1.80;;;21.60;86.30;;;;;;5066097;28;20040;-72
2021/04/20 10:56:34;;;;;;;3.47;2.10;;;21.50;91.40;;;;;;5065517;28;20017;-73
2021/04/20 10:59:06;;;;;;;3.33;1.58;;;21.70;88.60;;;;;;5064722;28;20040;-72
2021/04/20 11:01:33;;;;;;;3.42;1.77;;;21.70;77.50;;;;;;5065464;28;20024;-72
2021/04/20 11:04:00;;;;;;;3.78;1.98;;;21.50;87.10;;;;;;5065598;28;20093;-71
2021/04/20 11:06:45;;;;;;;9.93;2.60;;;21.70;86.30;;;;;;5065713;28;20076;-72
2021/04/20 11:09:11;;;;;;;9.98;2.00;;;21.90;78.30;;;;;;5063548;28;20033;-72
2021/04/20 11:11:38;;;;;;;4.40;2.03;;;21.90;85.00;;;;;;5058115;28;20021;-71
2021/04/20 11:14:04;;;;;;;3.03;1.75;;;21.90;81.20;;;;;;5061100;28;20029;-71
2021/04/20 11:16:38;;;;;;;5.13;2.45;;;21.80;82.70;;;;;;5044889;28;20104;-71
2021/04/20 11:19:11;;;;;;;2.45;1.52;;;21.90;81.10;;;;;;5045542;28;20084;-71
2021/04/20 11:21:42;;;;;;;2.08;1.38;;;22.00;76.20;;;;;;5060476;28;20053;-71
2021/04/20 11:24:17;;;;;;;4.15;1.80;;;22.20;78.50;;;;;;5045433;28;20439;-72
2021/04/20 11:26:49;;;;;;;1.63;1.38;;;22.30;73.90;;;;;;5045819;28;20052;-73
2021/04/20 11:29:30;;;;;;;2.78;1.55;;;22.30;76.90;;;;;;5045663;28;20024;-73
2021/04/20 11:31:57;;;;;;;2.63;1.40;;;22.40;74.10;;;;;;5045397;28;20447;-72
2021/04/20 11:34:31;;;;;;;4.55;2.08;;;22.60;76.50;;;;;;5045381;28;20038;-72
2021/04/20 11:37:10;;;;;;;2.22;1.38;;;22.70;72.90;;;;;;5045297;28;20030;-72
2021/04/20 11:39:49;;;;;;;3.65;1.98;;;22.70;70.40;;;;;;5045225;28;20056;-72
2021/04/20 11:42:28;;;;;;;1.38;1.27;;;22.70;75.40;;;;;;5045530;28;20045;-72
2021/04/20 11:45:23;;;;;;;1.80;1.20;;;22.80;75.50;;;;;;5045061;28;20127;-71
2021/04/20 11:47:57;;;;;;;2.38;1.55;;;22.90;66.60;;;;;;5045017;28;20036;-72
2021/04/20 11:50:23;;;;;;;;;;;22.90;69.60;;;;;;5045733;28;20060;-73
2021/04/20 11:52:57;;;;;;;6.25;1.73;;;23.10;65.10;;;;;;5045247;28;19912;-71
2021/04/20 11:55:32;;;;;;;4.55;1.85;;;23.20;68.80;;;;;;5045222;28;20044;-72
2021/04/20 11:58:11;;;;;;;6.45;1.60;;;23.50;69.70;;;;;;5045568;28;20022;-72
2021/04/20 12:00:38;;;;;;;2.30;1.35;;;23.70;64.40;;;;;;5045543;28;20055;-72
2021/04/20 12:03:17;;;;;;;3.20;1.65;;;23.60;68.00;;;;;;5044717;28;20039;-72
2021/04/20 12:05:52;;;;;;;1.75;1.30;;;23.70;68.10;;;;;;5044998;28;20450;-73
2021/04/20 12:08:24;;;;;;;4.00;2.03;;;24.00;69.10;;;;;;5045000;28;20051;-73
2021/04/20 12:10:51;;;;;;;7.55;1.67;;;24.20;68.80;;;;;;5044369;28;20025;-72
2021/04/20 12:13:22;;;;;;;6.90;2.10;;;24.40;67.90;;;;;;5044950;28;20026;-73
2021/04/20 12:16:05;;;;;;;1.73;0.98;;;24.50;65.60;;;;;;5044759;28;20017;-73
2021/04/20 12:18:31;;;;;;;4.55;1.83;;;24.50;63.00;;;;;;5045065;28;20041;-72
2021/04/20 12:21:24;;;;;;;2.67;1.73;;;24.60;65.00;;;;;;5044531;28;20045;-72
2021/04/20 12:23:59;;;;;;;3.10;1.50;;;24.70;58.90;;;;;;5044702;28;20048;-75
2021/04/20 12:26:28;;;;;;;2.15;1.42;;;24.70;65.00;;;;;;5044519;28;20030;-72
2021/04/20 12:28:57;;;;;;;3.53;1.52;;;24.70;63.90;;;;;;5051108;28;20021;-72
2021/04/20 12:31:36;;;;;;;5.03;1.90;;;24.80;63.00;;;;;;5051328;28;20034;-72
2021/04/20 12:34:03;;;;;;;4.38;1.73;;;24.80;58.00;;;;;;5051255;28;20033;-73
2021/04/20 12:36:53;;;;;;;4.50;1.77;;;24.60;60.50;;;;;;5051015;28;20017;-72
2021/04/20 12:39:47;;;;;;;2.60;1.40;;;24.30;58.70;;;;;;5051622;28;20047;-73
2021/04/20 12:42:17;;;;;;;2.28;1.52;;;24.20;58.10;;;;;;5050266;28;20049;-72
2021/04/20 12:44:48;;;;;;;1.67;1.35;;;24.10;60.70;;;;;;5051402;28;20080;-71
2021/04/20 12:47:16;;;;;;;2.25;1.10;;;24.20;60.70;;;;;;5051422;28;20033;-73
2021/04/20 12:49:47;;;;;;;2.45;1.65;;;24.40;58.60;;;;;;5051031;28;20075;-72
2021/04/20 12:52:25;;;;;;;3.35;1.70;;;24.40;59.40;;;;;;5050904;28;20033;-72
2021/04/20 12:54:57;;;;;;;2.33;1.38;;;24.60;58.70;;;;;;5050302;28;20465;-71
2021/04/20 12:57:31;;;;;;;3.00;1.52;;;24.90;58.90;;;;;;5049313;28;20113;-72
2021/04/20 13:00:01;;;;;;;3.70;1.77;;;25.00;55.00;;;;;;5050542;28;20024;-72
2021/04/20 13:02:27;;;;;;;1.70;1.00;;;25.00;58.80;;;;;;5050892;28;20044;-72
2021/04/20 13:05:01;;;;;;;4.03;1.42;;;25.20;58.30;;;;;;5050769;28;20049;-73
2021/04/20 13:07:27;;;;;;;1.90;1.20;;;25.40;56.80;;;;;;5051092;28;20032;-72
2021/04/20 13:09:54;;;;;;;9.32;1.42;;;25.60;56.00;;;;;;5049683;28;20061;-73
2021/04/20 13:12:26;;;;;;;2.83;1.23;;;25.70;57.30;;;;;;5050815;28;20033;-74
2021/04/20 13:14:54;;;;;;;2.35;1.25;;;25.90;55.20;;;;;;5050837;28;20025;-72
2021/04/20 13:17:23;;;;;;;2.35;1.48;;;25.90;57.30;;;;;;5051035;28;20029;-73
2021/04/20 13:20:02;;;;;;;1.58;1.10;;;26.10;56.80;;;;;;5050984;28;20024;-72